sensor_id;sensor_type;location;lat;lon;timestamp;pressure;altitude;pressure_sealevel;temperature;humidity
20656;BME280;10487;53.320;8.672;2023-06-01T00:00:40;102090.66;;;10.55;49.17
20656;BME280;10487;53.320;8.672;2023-06-01T00:03:41;102092.72;;;10.50;49.25
20656;BME280;10487;53.320;8.672;2023-06-01T00:06:43;102092.13;;;10.45;49.24
20656;BME280;10487;53.320;8.672;2023-06-01T00:09:45;102088.69;;;10.42;49.39
20656;BME280;10487;53.320;8.672;2023-06-01T00:12:47;102086.19;;;10.39;49.41
20656;BME280;10487;53.320;8.672;2023-06-01T00:15:49;102088.84;;;10.39;49.33
20656;BME280;10487;53.320;8.672;2023-06-01T00:18:52;102090.66;;;10.38;49.39
20656;BME280;10487;53.320;8.672;2023-06-01T00:21:57;102087.13;;;10.38;49.45
20656;BME280;10487;53.320;8.672;2023-06-01T00:24:59;102085.41;;;10.37;49.50
20656;BME280;10487;53.320;8.672;2023-06-01T00:28:00;102093.41;;;10.37;49.56
20656;BME280;10487;53.320;8.672;2023-06-01T00:31:04;102089.09;;;10.34;49.51
20656;BME280;10487;53.320;8.672;2023-06-01T00:34:06;102088.31;;;10.32;49.68
20656;BME280;10487;53.320;8.672;2023-06-01T00:37:08;102083.91;;;10.31;49.70
20656;BME280;10487;53.320;8.672;2023-06-01T00:40:10;102084.06;;;10.28;49.70
20656;BME280;10487;53.320;8.672;2023-06-01T00:43:12;102091.13;;;10.29;49.73
20656;BME280;10487;53.320;8.672;2023-06-01T00:46:14;102078.72;;;10.28;49.84
20656;BME280;10487;53.320;8.672;2023-06-01T00:49:15;102069.88;;;10.28;49.73
20656;BME280;10487;53.320;8.672;2023-06-01T00:52:18;102069.06;;;10.26;49.68
20656;BME280;10487;53.320;8.672;2023-06-01T00:55:20;102072.69;;;10.25;49.95
20656;BME280;10487;53.320;8.672;2023-06-01T00:58:22;102062.09;;;10.23;49.91
20656;BME280;10487;53.320;8.672;2023-06-01T01:01:24;102063.81;;;10.24;49.82
20656;BME280;10487;53.320;8.672;2023-06-01T01:04:26;102068.28;;;10.24;49.85
20656;BME280;10487;53.320;8.672;2023-06-01T01:10:55;102059.59;;;10.20;49.87
20656;BME280;10487;53.320;8.672;2023-06-01T01:14:10;102063.19;;;10.19;49.95
20656;BME280;10487;53.320;8.672;2023-06-01T01:17:17;102058.78;;;10.18;50.13
20656;BME280;10487;53.320;8.672;2023-06-01T01:20:29;102060.53;;;10.19;50.01
20656;BME280;10487;53.320;8.672;2023-06-01T01:23:48;102069.31;;;10.21;50.03
20656;BME280;10487;53.320;8.672;2023-06-01T01:27:17;102055.97;;;10.21;50.00
20656;BME280;10487;53.320;8.672;2023-06-01T01:30:28;102050.63;;;10.21;49.92
20656;BME280;10487;53.320;8.672;2023-06-01T01:33:31;102045.31;;;10.21;50.12
20656;BME280;10487;53.320;8.672;2023-06-01T01:36:34;102040.84;;;10.22;49.97
20656;BME280;10487;53.320;8.672;2023-06-01T01:39:37;102051.50;;;10.22;50.09
20656;BME280;10487;53.320;8.672;2023-06-01T01:42:39;102040.94;;;10.20;50.07
20656;BME280;10487;53.320;8.672;2023-06-01T01:45:40;102035.75;;;10.17;50.01
20656;BME280;10487;53.320;8.672;2023-06-01T01:48:52;102049.09;;;10.17;49.96
20656;BME280;10487;53.320;8.672;2023-06-01T01:52:05;102035.66;;;10.19;50.18
20656;BME280;10487;53.320;8.672;2023-06-01T01:55:10;102043.66;;;10.19;50.25
20656;BME280;10487;53.320;8.672;2023-06-01T01:58:12;102047.19;;;10.19;50.05
20656;BME280;10487;53.320;8.672;2023-06-01T02:01:15;102034.78;;;10.18;50.23
20656;BME280;10487;53.320;8.672;2023-06-01T02:04:17;102033.94;;;10.18;50.16
20656;BME280;10487;53.320;8.672;2023-06-01T02:07:19;102038.31;;;10.19;50.23
20656;BME280;10487;53.320;8.672;2023-06-01T02:10:21;102042.72;;;10.20;50.14
20656;BME280;10487;53.320;8.672;2023-06-01T02:13:22;102036.63;;;10.18;50.18
20656;BME280;10487;53.320;8.672;2023-06-01T02:16:24;102034.00;;;10.16;50.08
20656;BME280;10487;53.320;8.672;2023-06-01T02:19:26;102023.34;;;10.16;50.29
20656;BME280;10487;53.320;8.672;2023-06-01T02:22:28;102019.13;;;10.12;50.27
20656;BME280;10487;53.320;8.672;2023-06-01T02:25:30;102018.25;;;10.12;50.34
20656;BME280;10487;53.320;8.672;2023-06-01T02:28:31;102015.53;;;10.13;50.26
20656;BME280;10487;53.320;8.672;2023-06-01T02:31:36;102013.78;;;10.12;50.28
20656;BME280;10487;53.320;8.672;2023-06-01T02:34:37;102015.53;;;10.13;50.31
20656;BME280;10487;53.320;8.672;2023-06-01T02:37:39;102011.13;;;10.12;50.31
20656;BME280;10487;53.320;8.672;2023-06-01T02:40:41;102018.97;;;10.15;50.31
20656;BME280;10487;53.320;8.672;2023-06-01T02:43:43;102014.56;;;10.14;50.44
20656;BME280;10487;53.320;8.672;2023-06-01T02:46:44;102018.19;;;10.13;50.37
20656;BME280;10487;53.320;8.672;2023-06-01T02:49:46;102008.44;;;10.12;50.38
20656;BME280;10487;53.320;8.672;2023-06-01T02:52:48;102013.78;;;10.12;50.45
20656;BME280;10487;53.320;8.672;2023-06-01T02:55:49;102009.38;;;10.11;50.40
20656;BME280;10487;53.320;8.672;2023-06-01T02:58:51;102005.88;;;10.11;50.35
20656;BME280;10487;53.320;8.672;2023-06-01T03:01:52;102011.28;;;10.09;50.42
20656;BME280;10487;53.320;8.672;2023-06-01T03:04:54;102016.69;;;10.08;50.45
20656;BME280;10487;53.320;8.672;2023-06-01T03:07:56;102017.56;;;10.08;50.40
20656;BME280;10487;53.320;8.672;2023-06-01T03:10:58;102006.91;;;10.08;50.42
20656;BME280;10487;53.320;8.672;2023-06-01T03:13:59;102007.69;;;10.10;50.50
20656;BME280;10487;53.320;8.672;2023-06-01T03:17:01;102003.28;;;10.09;50.41
20656;BME280;10487;53.320;8.672;2023-06-01T03:20:03;102001.47;;;10.10;50.55
20656;BME280;10487;53.320;8.672;2023-06-01T03:23:05;101992.59;;;10.09;50.50
20656;BME280;10487;53.320;8.672;2023-06-01T03:26:07;102002.41;;;10.09;50.52
20656;BME280;10487;53.320;8.672;2023-06-01T03:29:09;102006.03;;;10.08;50.54
20656;BME280;10487;53.320;8.672;2023-06-01T03:32:10;102006.03;;;10.08;50.51
20656;BME280;10487;53.320;8.672;2023-06-01T03:35:12;101991.81;;;10.07;50.47
20656;BME280;10487;53.320;8.672;2023-06-01T03:38:14;101997.16;;;10.07;50.57
20656;BME280;10487;53.320;8.672;2023-06-01T03:41:16;102001.56;;;10.08;50.54
20656;BME280;10487;53.320;8.672;2023-06-01T03:44:17;101998.91;;;10.08;50.55
20656;BME280;10487;53.320;8.672;2023-06-01T03:47:19;101994.50;;;10.07;50.62
20656;BME280;10487;53.320;8.672;2023-06-01T03:50:21;101999.91;;;10.06;50.52
20656;BME280;10487;53.320;8.672;2023-06-01T03:53:22;101997.31;;;10.04;50.61
20656;BME280;10487;53.320;8.672;2023-06-01T03:56:24;102002.72;;;10.03;50.68
20656;BME280;10487;53.320;8.672;2023-06-01T03:59:26;101996.53;;;10.02;50.61
20656;BME280;10487;53.320;8.672;2023-06-01T04:02:28;101988.69;;;9.99;50.70
20656;BME280;10487;53.320;8.672;2023-06-01T04:05:30;101991.34;;;9.99;50.76
20656;BME280;10487;53.320;8.672;2023-06-01T04:08:33;101987.66;;;10.02;50.80
20656;BME280;10487;53.320;8.672;2023-06-01T04:11:35;101985.94;;;10.18;51.02
20656;BME280;10487;53.320;8.672;2023-06-01T04:14:37;101983.13;;;10.53;50.91
20656;BME280;10487;53.320;8.672;2023-06-01T04:17:40;101975.06;;;10.71;50.72
20656;BME280;10487;53.320;8.672;2023-06-01T04:20:42;101980.41;;;10.71;50.57
20656;BME280;10487;53.320;8.672;2023-06-01T04:23:43;101977.94;;;10.68;50.85
20656;BME280;10487;53.320;8.672;2023-06-01T04:26:45;101976.44;;;10.62;50.84
20656;BME280;10487;53.320;8.672;2023-06-01T04:29:47;101972.19;;;10.58;50.77
20656;BME280;10487;53.320;8.672;2023-06-01T04:32:49;101975.22;;;10.52;50.80
20656;BME280;10487;53.320;8.672;2023-06-01T04:35:51;101972.03;;;10.45;50.78
20656;BME280;10487;53.320;8.672;2023-06-01T04:38:56;101977.56;;;10.41;51.11
20656;BME280;10487;53.320;8.672;2023-06-01T04:41:58;101977.81;;;10.36;50.95
20656;BME280;10487;53.320;8.672;2023-06-01T04:45:04;101983.16;;;10.36;51.07
20656;BME280;10487;53.320;8.672;2023-06-01T04:48:08;101979.44;;;10.56;51.02
20656;BME280;10487;53.320;8.672;2023-06-01T04:51:13;101981.94;;;10.59;51.08
20656;BME280;10487;53.320;8.672;2023-06-01T04:54:20;101981.31;;;10.54;51.01
20656;BME280;10487;53.320;8.672;2023-06-01T04:57:22;101979.78;;;10.50;51.19
20656;BME280;10487;53.320;8.672;2023-06-01T05:00:24;101974.72;;;10.44;51.16
20656;BME280;10487;53.320;8.672;2023-06-01T05:03:26;101973.34;;;10.37;51.20
20656;BME280;10487;53.320;8.672;2023-06-01T05:06:28;101968.41;;;10.29;51.18
20656;BME280;10487;53.320;8.672;2023-06-01T05:09:29;101970.47;;;10.24;51.13
20656;BME280;10487;53.320;8.672;2023-06-01T05:12:32;101965.28;;;10.21;51.21
20656;BME280;10487;53.320;8.672;2023-06-01T05:15:33;101956.50;;;10.19;51.22
20656;BME280;10487;53.320;8.672;2023-06-01T05:18:35;101954.00;;;10.16;51.28
20656;BME280;10487;53.320;8.672;2023-06-01T05:21:38;101945.22;;;10.14;51.35
20656;BME280;10487;53.320;8.672;2023-06-01T05:24:40;101950.66;;;10.13;51.20
20656;BME280;10487;53.320;8.672;2023-06-01T05:27:41;101950.81;;;10.10;51.29
20656;BME280;10487;53.320;8.672;2023-06-01T05:30:43;101953.56;;;10.08;51.36
20656;BME280;10487;53.320;8.672;2023-06-01T05:33:45;101950.94;;;10.07;51.36
20656;BME280;10487;53.320;8.672;2023-06-01T05:36:46;101951.97;;;10.04;51.42
20656;BME280;10487;53.320;8.672;2023-06-01T05:39:48;101949.31;;;10.04;51.34
20656;BME280;10487;53.320;8.672;2023-06-01T05:42:50;101951.72;;;10.09;51.45
20656;BME280;10487;53.320;8.672;2023-06-01T05:45:51;101947.19;;;10.11;51.43
20656;BME280;10487;53.320;8.672;2023-06-01T05:48:53;101947.09;;;10.12;51.35
20656;BME280;10487;53.320;8.672;2023-06-01T05:51:57;101941.88;;;10.11;51.35
20656;BME280;10487;53.320;8.672;2023-06-01T05:54:59;101949.88;;;10.11;51.39
20656;BME280;10487;53.320;8.672;2023-06-01T05:58:01;101944.59;;;10.09;51.47
20656;BME280;10487;53.320;8.672;2023-06-01T06:01:03;101956.72;;;10.32;51.75
20656;BME280;10487;53.320;8.672;2023-06-01T06:04:05;101953.28;;;10.63;51.66
20656;BME280;10487;53.320;8.672;2023-06-01T06:07:07;101955.81;;;10.97;51.66
20656;BME280;10487;53.320;8.672;2023-06-01T06:10:09;101959.75;;;11.21;51.43
20656;BME280;10487;53.320;8.672;2023-06-01T06:13:11;101956.13;;;11.22;51.15
20656;BME280;10487;53.320;8.672;2023-06-01T06:16:13;101950.25;;;11.15;51.38
20656;BME280;10487;53.320;8.672;2023-06-01T06:19:15;101950.91;;;11.05;51.43
20656;BME280;10487;53.320;8.672;2023-06-01T06:22:19;101952.44;;;10.93;51.08
20656;BME280;10487;53.320;8.672;2023-06-01T06:25:21;101955.53;;;10.86;51.41
20656;BME280;10487;53.320;8.672;2023-06-01T06:28:23;101951.56;;;10.77;51.47
20656;BME280;10487;53.320;8.672;2023-06-01T06:31:25;101952.06;;;10.68;51.38
20656;BME280;10487;53.320;8.672;2023-06-01T06:34:27;101946.22;;;10.62;51.52
20656;BME280;10487;53.320;8.672;2023-06-01T06:37:35;101945.44;;;10.60;51.40
20656;BME280;10487;53.320;8.672;2023-06-01T06:40:36;101949.16;;;10.57;51.46
20656;BME280;10487;53.320;8.672;2023-06-01T06:43:38;101949.31;;;10.54;51.28
20656;BME280;10487;53.320;8.672;2023-06-01T06:46:40;101951.97;;;10.54;51.40
20656;BME280;10487;53.320;8.672;2023-06-01T06:49:42;101947.50;;;10.54;51.48
20656;BME280;10487;53.320;8.672;2023-06-01T06:52:44;101947.50;;;10.54;51.47
20656;BME280;10487;53.320;8.672;2023-06-01T06:55:46;101952.84;;;10.54;51.35
20656;BME280;10487;53.320;8.672;2023-06-01T06:58:48;101957.31;;;10.54;51.33
20656;BME280;10487;53.320;8.672;2023-06-01T07:02:06;101968.09;;;10.52;51.31
20656;BME280;10487;53.320;8.672;2023-06-01T07:05:08;101958.34;;;10.51;51.32
20656;BME280;10487;53.320;8.672;2023-06-01T07:08:12;101961.00;;;10.51;51.43
20656;BME280;10487;53.320;8.672;2023-06-01T07:11:13;101961.09;;;10.50;51.55
20656;BME280;10487;53.320;8.672;2023-06-01T07:14:15;101959.38;;;10.49;51.36
20656;BME280;10487;53.320;8.672;2023-06-01T07:17:17;101968.41;;;10.46;51.37
20656;BME280;10487;53.320;8.672;2023-06-01T07:20:19;101957.81;;;10.45;51.41
20656;BME280;10487;53.320;8.672;2023-06-01T07:23:21;101962.19;;;10.46;51.50
20656;BME280;10487;53.320;8.672;2023-06-01T07:26:22;101958.72;;;10.44;51.60
20656;BME280;10487;53.320;8.672;2023-06-01T07:29:28;101967.59;;;10.44;51.39
20656;BME280;10487;53.320;8.672;2023-06-01T07:32:29;101961.34;;;10.45;51.44
20656;BME280;10487;53.320;8.672;2023-06-01T07:35:31;101958.59;;;10.47;51.53
20656;BME280;10487;53.320;8.672;2023-06-01T07:38:34;101962.91;;;10.49;51.32
20656;BME280;10487;53.320;8.672;2023-06-01T07:41:36;101958.44;;;10.50;51.53
20656;BME280;10487;53.320;8.672;2023-06-01T07:44:37;101958.50;;;10.48;51.35
20656;BME280;10487;53.320;8.672;2023-06-01T07:47:39;101954.19;;;10.46;51.46
20656;BME280;10487;53.320;8.672;2023-06-01T07:50:41;101960.41;;;10.46;51.42
20656;BME280;10487;53.320;8.672;2023-06-01T07:53:43;101958.50;;;10.48;51.30
20656;BME280;10487;53.320;8.672;2023-06-01T07:56:45;101957.47;;;10.51;51.50
20656;BME280;10487;53.320;8.672;2023-06-01T07:59:48;101961.78;;;10.53;51.36
20656;BME280;10487;53.320;8.672;2023-06-01T08:02:50;101958.19;;;10.54;51.22
20656;BME280;10487;53.320;8.672;2023-06-01T08:05:52;101965.22;;;10.55;51.39
20656;BME280;10487;53.320;8.672;2023-06-01T08:08:59;101963.34;;;10.58;51.25
20656;BME280;10487;53.320;8.672;2023-06-01T08:12:02;101960.75;;;10.56;51.40
20656;BME280;10487;53.320;8.672;2023-06-01T08:15:04;101964.28;;;10.57;51.35
20656;BME280;10487;53.320;8.672;2023-06-01T08:18:05;101959.41;;;10.65;51.70
20656;BME280;10487;53.320;8.672;2023-06-01T08:21:08;101956.38;;;10.71;51.34
20656;BME280;10487;53.320;8.672;2023-06-01T08:24:10;101958.28;;;10.69;51.46
20656;BME280;10487;53.320;8.672;2023-06-01T08:27:18;101956.78;;;10.63;51.56
20656;BME280;10487;53.320;8.672;2023-06-01T08:30:25;101950.78;;;10.60;51.59
20656;BME280;10487;53.320;8.672;2023-06-01T08:33:27;101960.28;;;10.65;51.64
20656;BME280;10487;53.320;8.672;2023-06-01T08:36:29;101958.28;;;10.69;51.56
20656;BME280;10487;53.320;8.672;2023-06-01T08:39:30;101963.34;;;10.73;51.49
20656;BME280;10487;53.320;8.672;2023-06-01T08:45:47;101957.69;;;10.79;51.56
20656;BME280;10487;53.320;8.672;2023-06-01T08:48:52;101956.75;;;10.80;51.46
20656;BME280;10487;53.320;8.672;2023-06-01T08:51:57;101959.44;;;10.80;51.42
20656;BME280;10487;53.320;8.672;2023-06-01T08:55:02;101956.66;;;10.82;51.23
20656;BME280;10487;53.320;8.672;2023-06-01T08:58:04;101958.38;;;10.83;51.50
20656;BME280;10487;53.320;8.672;2023-06-01T09:01:06;101956.50;;;10.85;51.37
20656;BME280;10487;53.320;8.672;2023-06-01T09:04:08;101962.59;;;10.87;51.46
20656;BME280;10487;53.320;8.672;2023-06-01T09:07:12;101962.50;;;10.88;51.28
20656;BME280;10487;53.320;8.672;2023-06-01T09:10:14;101954.44;;;10.90;51.47
20656;BME280;10487;53.320;8.672;2023-06-01T09:13:37;101956.75;;;10.96;51.41
20656;BME280;10487;53.320;8.672;2023-06-01T09:16:39;101948.56;;;10.99;51.43
20656;BME280;10487;53.320;8.672;2023-06-01T09:19:42;101961.75;;;11.02;51.32
20656;BME280;10487;53.320;8.672;2023-06-01T09:22:46;101954.50;;;11.04;51.32
20656;BME280;10487;53.320;8.672;2023-06-01T09:26:12;101956.13;;;11.06;51.39
20656;BME280;10487;53.320;8.672;2023-06-01T09:29:15;101955.09;;;11.09;51.30
20656;BME280;10487;53.320;8.672;2023-06-01T09:32:19;101943.38;;;11.11;51.22
20656;BME280;10487;53.320;8.672;2023-06-01T09:38:42;101945.28;;;11.09;51.24
20656;BME280;10487;53.320;8.672;2023-06-01T09:44:48;101949.75;;;11.09;51.33
20656;BME280;10487;53.320;8.672;2023-06-01T09:47:51;101944.41;;;11.09;51.24
20656;BME280;10487;53.320;8.672;2023-06-01T09:50:53;101943.50;;;11.10;51.12
20656;BME280;10487;53.320;8.672;2023-06-01T09:53:55;101954.25;;;11.08;51.07
20656;BME280;10487;53.320;8.672;2023-06-01T09:56:58;101953.47;;;11.06;51.17
20656;BME280;10487;53.320;8.672;2023-06-01T10:00:22;101942.88;;;11.05;51.14
20656;BME280;10487;53.320;8.672;2023-06-01T10:03:25;101934.06;;;11.03;51.20
20656;BME280;10487;53.320;8.672;2023-06-01T10:06:27;101934.94;;;11.03;51.23
20656;BME280;10487;53.320;8.672;2023-06-01T10:09:31;101934.06;;;11.03;51.32
20656;BME280;10487;53.320;8.672;2023-06-01T10:12:35;101936.75;;;11.03;51.22
20656;BME280;10487;53.320;8.672;2023-06-01T10:15:37;101933.13;;;11.04;51.11
20656;BME280;10487;53.320;8.672;2023-06-01T10:18:39;101930.47;;;11.04;51.15
20656;BME280;10487;53.320;8.672;2023-06-01T10:21:42;101926.75;;;11.06;51.20
20656;BME280;10487;53.320;8.672;2023-06-01T10:24:46;101933.72;;;11.09;51.27
20656;BME280;10487;53.320;8.672;2023-06-01T10:28:05;101941.59;;;11.12;51.10
20656;BME280;10487;53.320;8.672;2023-06-01T10:31:37;101930.91;;;11.12;51.28
20656;BME280;10487;53.320;8.672;2023-06-01T10:34:42;101930.97;;;11.10;51.13
20656;BME280;10487;53.320;8.672;2023-06-01T10:41:30;101927.34;;;11.11;51.31
20656;BME280;10487;53.320;8.672;2023-06-01T10:51:17;101926.91;;;11.19;51.09
20656;BME280;10487;53.320;8.672;2023-06-01T10:54:28;101918.91;;;11.19;51.32
20656;BME280;10487;53.320;8.672;2023-06-01T10:57:30;101926.16;;;11.17;51.12
20656;BME280;10487;53.320;8.672;2023-06-01T11:00:38;101921.66;;;11.17;51.08
20656;BME280;10487;53.320;8.672;2023-06-01T11:03:45;101927.00;;;11.17;51.36
20656;BME280;10487;53.320;8.672;2023-06-01T11:06:48;101908.22;;;11.19;51.14
20656;BME280;10487;53.320;8.672;2023-06-01T11:09:49;101913.38;;;11.22;51.18
20656;BME280;10487;53.320;8.672;2023-06-01T11:13:10;101917.69;;;11.25;51.18
20656;BME280;10487;53.320;8.672;2023-06-01T11:19:34;101919.22;;;11.29;51.21
20656;BME280;10487;53.320;8.672;2023-06-01T11:22:42;101919.31;;;11.27;51.25
20656;BME280;10487;53.320;8.672;2023-06-01T11:25:45;101916.66;;;11.27;51.11
20656;BME280;10487;53.320;8.672;2023-06-01T11:28:48;101923.88;;;11.25;51.14
20656;BME280;10487;53.320;8.672;2023-06-01T11:34:52;101916.13;;;11.20;51.23
20656;BME280;10487;53.320;8.672;2023-06-01T11:37:55;101914.22;;;11.23;51.27
20656;BME280;10487;53.320;8.672;2023-06-01T11:40:59;101912.25;;;11.26;51.27
20656;BME280;10487;53.320;8.672;2023-06-01T11:44:01;101917.50;;;11.28;51.26
20656;BME280;10487;53.320;8.672;2023-06-01T11:47:06;101911.91;;;11.32;51.43
20656;BME280;10487;53.320;8.672;2023-06-01T11:50:20;101917.16;;;11.34;51.30
20656;BME280;10487;53.320;8.672;2023-06-01T11:53:23;101914.19;;;11.38;51.09
20656;BME280;10487;53.320;8.672;2023-06-01T11:56:35;101909.44;;;11.43;51.50
20656;BME280;10487;53.320;8.672;2023-06-01T12:02:43;101905.44;;;11.50;51.26
20656;BME280;10487;53.320;8.672;2023-06-01T12:05:46;101900.09;;;11.50;51.15
20656;BME280;10487;53.320;8.672;2023-06-01T12:08:50;101906.25;;;11.52;51.10
20656;BME280;10487;53.320;8.672;2023-06-01T12:11:58;101899.03;;;11.54;50.98
20656;BME280;10487;53.320;8.672;2023-06-01T12:15:00;101902.47;;;11.56;51.02
20656;BME280;10487;53.320;8.672;2023-06-01T12:18:02;101898.06;;;11.55;51.22
20656;BME280;10487;53.320;8.672;2023-06-01T12:21:11;101900.84;;;11.54;50.99
20656;BME280;10487;53.320;8.672;2023-06-01T12:24:13;101898.22;;;11.52;51.09
20656;BME280;10487;53.320;8.672;2023-06-01T12:27:17;101897.28;;;11.53;51.25
20656;BME280;10487;53.320;8.672;2023-06-01T12:30:21;101892.81;;;11.54;50.91
20656;BME280;10487;53.320;8.672;2023-06-01T12:33:35;101891.78;;;11.56;50.81
20656;BME280;10487;53.320;8.672;2023-06-01T12:36:37;101910.38;;;11.58;50.91
20656;BME280;10487;53.320;8.672;2023-06-01T12:39:38;101899.69;;;11.58;50.84
20656;BME280;10487;53.320;8.672;2023-06-01T12:42:42;101895.97;;;11.60;51.13
20656;BME280;10487;53.320;8.672;2023-06-01T12:45:44;101903.91;;;11.62;50.84
20656;BME280;10487;53.320;8.672;2023-06-01T12:48:46;101900.09;;;11.66;50.90
20656;BME280;10487;53.320;8.672;2023-06-01T12:51:49;101898.19;;;11.68;51.09
20656;BME280;10487;53.320;8.672;2023-06-01T12:54:51;101906.13;;;11.69;51.00
20656;BME280;10487;53.320;8.672;2023-06-01T12:57:54;101902.22;;;11.75;50.86
20656;BME280;10487;53.320;8.672;2023-06-01T13:00:56;101911.69;;;11.80;50.98
20656;BME280;10487;53.320;8.672;2023-06-01T13:03:58;101905.19;;;11.84;51.00
20656;BME280;10487;53.320;8.672;2023-06-01T13:07:00;101907.66;;;11.88;50.87
20656;BME280;10487;53.320;8.672;2023-06-01T13:10:03;101903.28;;;11.87;50.59
20656;BME280;10487;53.320;8.672;2023-06-01T13:13:07;101911.31;;;11.87;50.67
20656;BME280;10487;53.320;8.672;2023-06-01T13:16:08;101915.69;;;11.88;50.68
20656;BME280;10487;53.320;8.672;2023-06-01T13:19:10;101900.50;;;11.88;50.63
20656;BME280;10487;53.320;8.672;2023-06-01T13:22:12;101907.66;;;11.88;51.08
20656;BME280;10487;53.320;8.672;2023-06-01T13:25:14;101894.41;;;11.86;50.92
20656;BME280;10487;53.320;8.672;2023-06-01T13:28:18;101897.16;;;11.84;50.76
20656;BME280;10487;53.320;8.672;2023-06-01T13:31:20;101892.03;;;11.81;50.71
20656;BME280;10487;53.320;8.672;2023-06-01T13:34:24;101891.03;;;11.82;51.01
20656;BME280;10487;53.320;8.672;2023-06-01T13:37:27;101885.63;;;11.84;50.70
20656;BME280;10487;53.320;8.672;2023-06-01T13:40:28;101881.03;;;11.86;50.83
20656;BME280;10487;53.320;8.672;2023-06-01T13:43:30;101888.00;;;11.89;50.98
20656;BME280;10487;53.320;8.672;2023-06-01T13:46:32;101883.53;;;11.89;50.69
20656;BME280;10487;53.320;8.672;2023-06-01T13:49:33;101886.09;;;11.91;50.72
20656;BME280;10487;53.320;8.672;2023-06-01T13:52:35;101878.19;;;11.89;51.01
20656;BME280;10487;53.320;8.672;2023-06-01T13:55:37;101877.31;;;11.89;51.06
20656;BME280;10487;53.320;8.672;2023-06-01T13:58:40;101880.00;;;11.89;51.11
20656;BME280;10487;53.320;8.672;2023-06-01T14:01:42;101869.38;;;11.87;50.94
20656;BME280;10487;53.320;8.672;2023-06-01T14:04:43;101874.53;;;11.90;50.87
20656;BME280;10487;53.320;8.672;2023-06-01T14:07:52;101869.94;;;11.92;50.70
20656;BME280;10487;53.320;8.672;2023-06-01T14:10:56;101873.47;;;11.93;50.70
20656;BME280;10487;53.320;8.672;2023-06-01T14:13:58;101876.09;;;11.94;50.64
20656;BME280;10487;53.320;8.672;2023-06-01T14:17:00;101874.16;;;11.96;51.05
20656;BME280;10487;53.320;8.672;2023-06-01T14:20:02;101876.66;;;11.99;50.65
20656;BME280;10487;53.320;8.672;2023-06-01T14:23:04;101874.81;;;12.00;50.52
20656;BME280;10487;53.320;8.672;2023-06-01T14:26:09;101866.78;;;12.00;50.89
20656;BME280;10487;53.320;8.672;2023-06-01T14:29:10;101875.69;;;12.00;50.42
20656;BME280;10487;53.320;8.672;2023-06-01T14:32:12;101864.13;;;12.00;50.55
20656;BME280;10487;53.320;8.672;2023-06-01T14:35:14;101874.06;;;11.98;50.83
20656;BME280;10487;53.320;8.672;2023-06-01T14:38:17;101870.53;;;11.97;50.59
20656;BME280;10487;53.320;8.672;2023-06-01T14:41:19;101868.63;;;11.99;50.88
20656;BME280;10487;53.320;8.672;2023-06-01T14:44:21;101866.53;;;12.04;50.80
20656;BME280;10487;53.320;8.672;2023-06-01T14:47:23;101854.78;;;12.07;50.47
20656;BME280;10487;53.320;8.672;2023-06-01T14:50:24;101859.91;;;12.10;50.63
20656;BME280;10487;53.320;8.672;2023-06-01T14:53:26;101856.94;;;12.14;50.72
20656;BME280;10487;53.320;8.672;2023-06-01T14:56:28;101849.78;;;12.15;50.42
20656;BME280;10487;53.320;8.672;2023-06-01T14:59:30;101861.06;;;12.20;50.39
20656;BME280;10487;53.320;8.672;2023-06-01T15:02:34;101851.03;;;12.23;50.49
20656;BME280;10487;53.320;8.672;2023-06-01T15:05:37;101854.47;;;12.25;50.61
20656;BME280;10487;53.320;8.672;2023-06-01T15:08:38;101845.28;;;12.29;50.48
20656;BME280;10487;53.320;8.672;2023-06-01T15:11:40;101831.53;;;12.35;50.33
20656;BME280;10487;53.320;8.672;2023-06-01T15:14:41;101837.13;;;12.45;50.44
20656;BME280;10487;53.320;8.672;2023-06-01T15:17:44;101836.56;;;12.54;50.43
20656;BME280;10487;53.320;8.672;2023-06-01T15:20:46;101835.13;;;12.63;50.09
20656;BME280;10487;53.320;8.672;2023-06-01T15:23:48;101842.84;;;12.67;50.13
20656;BME280;10487;53.320;8.672;2023-06-01T15:26:49;101831.94;;;12.70;50.15
20656;BME280;10487;53.320;8.672;2023-06-01T15:29:51;101837.19;;;12.72;50.27
20656;BME280;10487;53.320;8.672;2023-06-01T15:32:53;101835.38;;;12.72;50.02
20656;BME280;10487;53.320;8.672;2023-06-01T15:36:08;101839.66;;;12.75;50.32
20656;BME280;10487;53.320;8.672;2023-06-01T15:39:10;101834.19;;;12.76;50.46
20656;BME280;10487;53.320;8.672;2023-06-01T15:42:12;101843.22;;;12.75;50.22
20656;BME280;10487;53.320;8.672;2023-06-01T15:45:13;101834.50;;;12.72;50.11
20656;BME280;10487;53.320;8.672;2023-06-01T15:48:15;101827.66;;;12.68;50.29
20656;BME280;10487;53.320;8.672;2023-06-01T15:51:17;101829.56;;;12.66;50.47
20656;BME280;10487;53.320;8.672;2023-06-01T15:54:19;101832.13;;;12.67;50.46
20656;BME280;10487;53.320;8.672;2023-06-01T15:57:21;101825.16;;;12.65;49.99
20656;BME280;10487;53.320;8.672;2023-06-01T16:00:22;101823.75;;;12.59;50.09
20656;BME280;10487;53.320;8.672;2023-06-01T16:03:24;101829.41;;;12.55;50.43
20656;BME280;10487;53.320;8.672;2023-06-01T16:06:26;101838.50;;;12.52;50.05
20656;BME280;10487;53.320;8.672;2023-06-01T16:09:28;101830.63;;;12.49;50.06
20656;BME280;10487;53.320;8.672;2023-06-01T16:12:29;101836.19;;;12.46;50.35
20656;BME280;10487;53.320;8.672;2023-06-01T16:15:31;101828.47;;;12.41;50.35
20656;BME280;10487;53.320;8.672;2023-06-01T16:18:33;101828.97;;;12.34;50.29
20656;BME280;10487;53.320;8.672;2023-06-01T16:21:35;101825.50;;;12.32;50.10
20656;BME280;10487;53.320;8.672;2023-06-01T16:24:38;101821.88;;;12.33;50.06
20656;BME280;10487;53.320;8.672;2023-06-01T16:27:39;101821.97;;;12.31;49.93
20656;BME280;10487;53.320;8.672;2023-06-01T16:30:41;101811.75;;;12.24;49.94